createdAt,value
2022-11-18T00:01:24.382Z,0.11
2022-11-18T00:03:52.483Z,0.11
2022-11-18T00:06:28.125Z,0.07
2022-11-18T00:08:55.893Z,0.06
2022-11-18T00:11:45.869Z,0.03
2022-11-18T00:14:26.344Z,0.00
2022-11-18T00:17:01.996Z,-0.03
2022-11-18T00:19:48.788Z,-0.04
2022-11-18T00:22:28.550Z,-0.07
2022-11-18T00:25:01.267Z,-0.15
2022-11-18T00:27:46.538Z,-0.06
2022-11-18T00:30:16.750Z,-0.15
2022-11-18T00:32:47.848Z,-0.12
2022-11-18T00:35:14.547Z,-0.11
2022-11-18T00:37:41.674Z,-0.11
2022-11-18T00:40:22.397Z,-0.12
2022-11-18T00:42:51.703Z,-0.15
2022-11-18T00:45:19.675Z,-0.16
2022-11-18T00:47:46.529Z,-0.19
2022-11-18T00:50:13.392Z,-0.21
2022-11-18T00:52:40.194Z,-0.19
2022-11-18T00:55:07.438Z,-0.20
2022-11-18T00:57:36.201Z,-0.23
2022-11-18T01:00:03.346Z,-0.23
2022-11-18T01:02:30.250Z,-0.25
2022-11-18T01:04:56.816Z,-0.24
2022-11-18T01:07:23.487Z,-0.23
2022-11-18T01:09:50.142Z,-0.25
2022-11-18T01:12:35.132Z,-0.25
2022-11-18T01:15:01.828Z,-0.25
2022-11-18T01:17:31.165Z,-0.28
2022-11-18T01:19:58.041Z,-0.29
2022-11-18T01:22:24.720Z,-0.28
2022-11-18T01:24:51.565Z,-0.31
2022-11-18T01:27:19.387Z,-0.33
2022-11-18T01:29:46.077Z,-0.32
2022-11-18T01:32:28.035Z,-0.33
2022-11-18T01:34:54.695Z,-0.36
2022-11-18T01:37:21.333Z,-0.33
2022-11-18T01:39:48.589Z,-0.33
2022-11-18T01:42:17.908Z,-0.37
2022-11-18T01:45:11.169Z,-0.34
2022-11-18T01:47:44.250Z,-0.36
2022-11-18T01:50:13.150Z,-0.37
2022-11-18T01:52:41.101Z,-0.36
2022-11-18T01:55:14.371Z,-0.38
2022-11-18T01:57:41.846Z,-0.41
2022-11-18T02:00:09.197Z,-0.49
2022-11-18T02:02:38.876Z,-0.51
2022-11-18T02:05:07.584Z,-0.50
2022-11-18T02:07:37.770Z,-0.54
2022-11-18T02:10:07.440Z,-0.54
2022-11-18T02:12:36.548Z,-0.53
2022-11-18T02:15:04.380Z,-0.55
2022-11-18T02:17:43.822Z,-0.59
2022-11-18T02:20:39.673Z,-0.56
2022-11-18T02:27:19.963Z,-0.61
2022-11-18T02:30:08.767Z,-0.60
2022-11-18T02:32:56.480Z,-0.61
2022-11-18T02:35:37.690Z,-0.59
2022-11-18T02:38:39.403Z,-0.61
2022-11-18T02:41:10.876Z,-0.58
2022-11-18T02:43:43.768Z,-0.59
2022-11-18T02:46:15.459Z,-0.60
2022-11-18T02:48:47.880Z,-0.65
2022-11-18T02:51:18.642Z,-0.62
2022-11-18T02:53:46.770Z,-0.61
2022-11-18T02:56:15.659Z,-0.60
2022-11-18T02:58:42.285Z,-0.61
2022-11-18T03:01:18.562Z,-0.58
2022-11-18T03:03:45.599Z,-0.60
2022-11-18T03:06:30.202Z,-0.57
2022-11-18T03:09:03.831Z,-0.58
2022-11-18T03:11:36.401Z,-0.59
2022-11-18T03:14:31.684Z,-0.58
2022-11-18T03:17:02.169Z,-0.59
2022-11-18T03:19:51.750Z,-0.59
2022-11-18T03:22:22.919Z,-0.58
2022-11-18T03:25:19.098Z,-0.59
2022-11-18T03:28:06.334Z,-0.61
2022-11-18T03:30:36.871Z,-0.59
2022-11-18T03:33:12.380Z,-0.60
2022-11-18T03:35:42.829Z,-0.59
2022-11-18T03:38:15.889Z,-0.59
2022-11-18T03:40:48.818Z,-0.60
2022-11-18T03:43:21.845Z,-0.61
2022-11-18T03:46:29.440Z,-0.62
2022-11-18T03:48:56.968Z,-0.63
2022-11-18T03:51:33.683Z,-0.64
2022-11-18T03:54:14.106Z,-0.68
2022-11-18T03:56:46.562Z,-0.73
2022-11-18T03:59:22.727Z,-0.77
2022-11-18T04:02:03.755Z,-0.78
2022-11-18T04:04:30.985Z,-0.81
2022-11-18T04:07:22.815Z,-0.80
2022-11-18T04:09:59.754Z,-0.81
2022-11-18T04:12:31.848Z,-0.79
2022-11-18T04:14:59.368Z,-0.80
2022-11-18T04:17:29.021Z,-0.81
2022-11-18T04:19:55.947Z,-0.79
2022-11-18T04:22:22.883Z,-0.81
2022-11-18T04:24:49.447Z,-0.84
2022-11-18T04:27:16.169Z,-0.87
2022-11-18T04:29:42.776Z,-0.90
2022-11-18T04:32:10.893Z,-0.90
2022-11-18T04:34:37.452Z,-0.91
2022-11-18T04:37:05.507Z,-0.91
2022-11-18T04:39:32.143Z,-1.00
2022-11-18T04:41:58.881Z,-0.98
2022-11-18T04:44:28.395Z,-1.05
2022-11-18T04:46:57.325Z,-1.04
2022-11-18T04:49:25.053Z,-1.06
2022-11-18T04:51:52.964Z,-1.08
2022-11-18T04:54:20.677Z,-1.13
2022-11-18T04:56:49.682Z,-1.14
2022-11-18T04:59:20.272Z,-1.15
2022-11-18T05:01:48.229Z,-1.18
2022-11-18T05:04:17.013Z,-1.15
2022-11-18T05:06:44.409Z,-1.15
2022-11-18T05:09:11.510Z,-1.19
2022-11-18T05:11:56.771Z,-1.21
2022-11-18T05:14:27.150Z,-1.22
2022-11-18T05:16:55.484Z,-1.25
2022-11-18T05:19:22.793Z,-1.33
2022-11-18T05:21:49.921Z,-1.32
2022-11-18T05:24:17.011Z,-1.38
2022-11-18T05:26:44.257Z,-1.39
2022-11-18T05:29:10.955Z,-1.42
2022-11-18T05:31:38.051Z,-1.36
2022-11-18T05:34:04.997Z,-1.39
2022-11-18T05:36:31.632Z,-1.44
2022-11-18T05:39:01.941Z,-1.44
2022-11-18T05:41:47.111Z,-1.43
2022-11-18T05:44:14.086Z,-1.45
2022-11-18T05:46:40.761Z,-1.44
2022-11-18T05:49:07.892Z,-1.51
2022-11-18T05:51:35.342Z,-1.52
2022-11-18T05:54:06.517Z,-1.55
2022-11-18T05:56:38.303Z,-1.54
2022-11-18T05:59:05.844Z,-1.57
2022-11-18T06:01:38.172Z,-1.61
2022-11-18T06:04:11.646Z,-1.66
2022-11-18T06:06:38.563Z,-1.69
2022-11-18T06:09:07.440Z,-1.66
2022-11-18T06:11:43.633Z,-1.70
2022-11-18T06:14:17.611Z,-1.68
2022-11-18T06:16:49.798Z,-1.66
2022-11-18T06:19:17.297Z,-1.70
2022-11-18T06:21:45.620Z,-1.70
2022-11-18T06:24:13.871Z,-1.69
2022-11-18T06:26:41.154Z,-1.72
2022-11-18T06:29:10.409Z,-1.74
2022-11-18T06:31:37.076Z,-1.70
2022-11-18T06:36:45.402Z,-1.70
2022-11-18T06:39:12.439Z,-1.68
2022-11-18T06:41:39.098Z,-1.72
2022-11-18T06:44:06.010Z,-1.68
2022-11-18T06:46:52.412Z,-1.71
2022-11-18T06:49:19.281Z,-1.74
2022-11-18T06:51:46.524Z,-1.84
2022-11-18T06:54:13.313Z,-1.89
2022-11-18T06:56:40.149Z,-1.88
2022-11-18T06:59:08.991Z,-1.86
2022-11-18T07:01:38.117Z,-1.84
2022-11-18T07:04:05.345Z,-1.90
2022-11-18T07:06:35.356Z,-1.84
2022-11-18T07:09:04.449Z,-1.84
2022-11-18T07:11:31.069Z,-1.89
2022-11-18T07:13:57.974Z,-1.91
2022-11-18T07:16:26.489Z,-1.94
2022-11-18T07:18:55.008Z,-1.96
2022-11-18T07:21:24.534Z,-1.97
2022-11-18T07:23:51.981Z,-1.98
2022-11-18T07:26:21.607Z,-1.98
2022-11-18T07:28:48.816Z,-2.03
2022-11-18T07:31:21.809Z,-2.07
2022-11-18T07:33:49.416Z,-2.02
2022-11-18T07:36:19.299Z,-2.04
2022-11-18T07:38:46.907Z,-2.05
2022-11-18T07:41:16.301Z,-2.09
2022-11-18T07:43:44.097Z,-2.07
2022-11-18T07:46:19.620Z,-2.00
2022-11-18T07:48:48.094Z,-2.03
2022-11-18T07:51:17.303Z,-2.04
2022-11-18T07:53:44.322Z,-2.09
2022-11-18T07:56:13.441Z,-2.12
2022-11-18T07:58:40.489Z,-2.09
2022-11-18T08:01:17.182Z,-2.08
2022-11-18T08:03:46.420Z,-2.08
2022-11-18T08:06:15.281Z,-2.11
2022-11-18T08:08:42.293Z,-2.08
2022-11-18T08:11:12.013Z,-2.08
2022-11-18T08:13:38.877Z,-2.11
2022-11-18T08:16:13.034Z,-2.08
2022-11-18T08:18:39.638Z,-2.11
2022-11-18T08:21:07.005Z,-2.01
2022-11-18T08:23:38.905Z,-1.95
2022-11-18T08:26:15.169Z,-1.95
2022-11-18T08:28:43.457Z,-1.87
2022-11-18T08:31:25.507Z,-1.90
2022-11-18T08:34:08.311Z,-1.89
2022-11-18T08:36:37.252Z,-1.83
2022-11-18T08:39:06.958Z,-1.89
2022-11-18T08:41:39.123Z,-1.86
2022-11-18T08:44:07.010Z,-1.89
2022-11-18T08:46:34.127Z,-2.00
2022-11-18T08:49:03.277Z,-1.95
2022-11-18T08:51:30.208Z,-1.97
2022-11-18T08:53:57.133Z,-2.02
2022-11-18T08:56:25.275Z,-1.97
2022-11-18T08:58:56.183Z,-2.00
2022-11-18T09:01:23.429Z,-1.99
2022-11-18T09:03:50.132Z,-1.99
2022-11-18T09:06:19.421Z,-1.99
2022-11-18T09:08:47.647Z,-1.91
2022-11-18T09:11:19.936Z,-1.97
2022-11-18T09:14:26.045Z,-1.97
2022-11-18T09:16:35.394Z,-1.94
2022-11-18T09:19:18.591Z,-1.96
2022-11-18T09:21:49.874Z,-2.01
2022-11-18T09:24:17.071Z,-1.96
2022-11-18T09:26:44.396Z,-1.94
2022-11-18T09:29:11.904Z,-1.94
2022-11-18T09:31:38.572Z,-1.95
2022-11-18T09:34:05.872Z,-1.92
2022-11-18T09:36:32.616Z,-1.85
2022-11-18T09:39:00.076Z,-1.74
2022-11-18T09:41:36.429Z,-1.76
2022-11-18T09:44:32.281Z,-1.73
2022-11-18T09:47:20.411Z,-1.64
2022-11-18T09:49:47.343Z,-1.69
2022-11-18T09:52:21.814Z,-1.73
2022-11-18T09:54:48.530Z,-1.65
2022-11-18T09:57:18.143Z,-1.65
2022-11-18T09:59:46.623Z,-1.76
2022-11-18T10:02:24.610Z,-1.69
2022-11-18T10:04:52.314Z,-1.79
2022-11-18T10:07:32.296Z,-2.02
2022-11-18T10:10:12.222Z,-2.11
2022-11-18T10:12:56.934Z,-2.20
2022-11-18T10:15:33.331Z,-2.09
2022-11-18T10:18:26.433Z,-2.01
2022-11-18T10:21:34.228Z,-2.07
2022-11-18T10:24:10.662Z,-2.00
2022-11-18T10:26:40.061Z,-1.92
2022-11-18T10:29:10.115Z,-1.95
2022-11-18T10:31:52.536Z,-1.82
2022-11-18T10:34:20.583Z,-1.88
2022-11-18T10:37:05.622Z,-2.03
2022-11-18T10:39:32.994Z,-1.90
2022-11-18T10:42:05.733Z,-1.79
2022-11-18T10:44:37.416Z,-1.75
2022-11-18T10:47:27.088Z,-1.71
2022-11-18T10:50:02.095Z,-1.70
2022-11-18T10:52:30.385Z,-1.62
2022-11-18T10:55:14.452Z,-1.63
2022-11-18T10:57:45.352Z,-1.86
2022-11-18T11:00:34.219Z,-1.77
2022-11-18T11:03:01.274Z,-1.67
2022-11-18T11:05:28.468Z,-1.82
2022-11-18T11:08:35.853Z,-1.68
2022-11-18T11:11:04.474Z,-1.73
2022-11-18T11:13:33.976Z,-1.67
2022-11-18T11:16:05.332Z,-1.67
2022-11-18T11:18:45.166Z,-1.67
2022-11-18T11:21:13.474Z,-1.85
2022-11-18T11:23:43.196Z,-1.80
2022-11-18T11:29:36.353Z,-1.76
2022-11-18T11:32:40.319Z,-1.79
2022-11-18T11:35:26.086Z,-1.82
2022-11-18T11:38:00.975Z,-1.84
2022-11-18T11:40:34.904Z,-1.84
2022-11-18T11:43:36.912Z,-1.89
2022-11-18T11:46:23.421Z,-1.85
2022-11-18T11:49:19.704Z,-1.86
2022-11-18T11:51:58.720Z,-1.89
2022-11-18T11:54:41.929Z,-1.91
2022-11-18T11:57:42.291Z,-1.94
2022-11-18T12:00:14.792Z,-1.94
2022-11-18T12:02:56.689Z,-1.90
2022-11-18T12:05:36.086Z,-1.94
2022-11-18T12:08:24.569Z,-1.97
2022-11-18T12:10:54.244Z,-1.96
2022-11-18T12:13:38.022Z,-2.01
2022-11-18T12:16:35.739Z,-2.18
2022-11-18T12:19:17.507Z,-2.11
2022-11-18T12:21:47.234Z,-2.13
2022-11-18T12:24:19.664Z,-2.17
2022-11-18T12:26:48.632Z,-2.08
2022-11-18T12:29:18.595Z,-2.17
2022-11-18T12:31:48.504Z,-2.16
2022-11-18T12:34:20.675Z,-2.13
2022-11-18T12:36:48.472Z,-2.16
2022-11-18T12:39:24.216Z,-2.20
2022-11-18T12:42:09.485Z,-2.19
2022-11-18T12:44:37.566Z,-2.14
2022-11-18T12:47:05.109Z,-2.22
2022-11-18T12:49:37.856Z,-2.41
2022-11-18T12:52:25.868Z,-2.52
2022-11-18T12:54:52.875Z,-2.48
2022-11-18T12:57:22.947Z,-2.53
2022-11-18T12:59:50.146Z,-2.39
2022-11-18T13:02:22.318Z,-2.54
2022-11-18T13:05:12.880Z,-2.71
2022-11-18T13:08:03.825Z,-2.64
2022-11-18T13:10:37.423Z,-2.56
2022-11-18T13:13:05.251Z,-2.52
2022-11-18T13:15:50.487Z,-2.54
2022-11-18T13:18:20.979Z,-2.55
2022-11-18T13:20:59.154Z,-2.54
2022-11-18T13:23:50.147Z,-2.55
2022-11-18T13:26:32.619Z,-2.58
2022-11-18T13:29:07.108Z,-2.56
2022-11-18T13:32:01.411Z,-2.58
2022-11-18T13:34:30.825Z,-2.58
2022-11-18T13:37:00.106Z,-2.60
2022-11-18T13:39:32.139Z,-2.63
2022-11-18T13:42:06.313Z,-2.65
2022-11-18T13:44:35.987Z,-2.63
2022-11-18T13:47:08.905Z,-2.68
2022-11-18T13:50:00.859Z,-2.71
2022-11-18T13:52:38.467Z,-2.79
2022-11-18T13:55:33.899Z,-2.71
2022-11-18T13:58:27.672Z,-2.65
2022-11-18T14:01:02.482Z,-2.71
2022-11-18T14:03:57.130Z,-2.78
2022-11-18T14:06:28.680Z,-2.83
2022-11-18T14:09:14.061Z,-2.84
2022-11-18T14:11:43.480Z,-2.88
2022-11-18T14:14:11.798Z,-2.90
2022-11-18T14:16:41.894Z,-2.95
2022-11-18T14:19:30.918Z,-2.99
2022-11-18T14:22:24.396Z,-3.04
2022-11-18T14:25:17.504Z,-3.02
2022-11-18T14:27:48.510Z,-3.02
2022-11-18T14:30:36.216Z,-2.99
2022-11-18T14:33:24.720Z,-3.03
2022-11-18T14:36:00.354Z,-3.05
2022-11-18T14:38:48.134Z,-3.06
2022-11-18T14:41:44.870Z,-3.10
2022-11-18T14:44:13.652Z,-3.18
2022-11-18T14:46:43.096Z,-3.23
2022-11-18T14:49:19.733Z,-3.27
2022-11-18T14:51:48.654Z,-3.29
2022-11-18T14:54:20.783Z,-3.35
2022-11-18T14:56:52.679Z,-3.36
2022-11-18T14:59:21.032Z,-3.37
2022-11-18T15:01:48.558Z,-3.38
2022-11-18T15:04:17.489Z,-3.40
2022-11-18T15:06:44.395Z,-3.41
2022-11-18T15:09:14.004Z,-3.41
2022-11-18T15:11:40.647Z,-3.44
2022-11-18T15:14:08.007Z,-3.42
2022-11-18T15:16:36.143Z,-3.44
2022-11-18T15:19:05.481Z,-3.47
2022-11-18T15:21:32.929Z,-3.45
2022-11-18T15:23:59.598Z,-3.49
2022-11-18T15:26:38.023Z,-3.50
2022-11-18T15:29:05.322Z,-3.50
2022-11-18T15:31:31.961Z,-3.46
2022-11-18T15:34:03.518Z,-3.46
2022-11-18T15:36:33.178Z,-3.35
2022-11-18T15:38:59.862Z,-3.23
2022-11-18T15:41:28.235Z,-3.19
2022-11-18T15:43:56.427Z,-3.17
2022-11-18T15:46:25.421Z,-3.14
2022-11-18T15:48:53.871Z,-3.17
2022-11-18T15:51:21.363Z,-3.18
2022-11-18T15:53:48.016Z,-3.19
2022-11-18T15:56:33.063Z,-3.20
2022-11-18T15:59:09.361Z,-3.20
2022-11-18T16:01:40.207Z,-3.18
2022-11-18T16:04:08.531Z,-3.21
2022-11-18T16:06:35.906Z,-3.26
2022-11-18T16:09:04.435Z,-3.30
2022-11-18T16:11:50.457Z,-3.30
2022-11-18T16:14:20.063Z,-3.35
2022-11-18T16:16:48.566Z,-3.39
2022-11-18T16:19:20.616Z,-3.46
2022-11-18T16:21:50.521Z,-3.54
2022-11-18T16:24:23.260Z,-3.58
2022-11-18T16:26:52.552Z,-3.63
2022-11-18T16:29:19.728Z,-3.69
2022-11-18T16:39:58.524Z,-3.84
2022-11-18T16:42:25.499Z,-3.78
2022-11-18T16:44:52.120Z,-3.56
2022-11-18T16:47:18.851Z,-3.42
2022-11-18T16:49:46.393Z,-3.53
2022-11-18T16:52:13.637Z,-3.61
2022-11-18T16:54:45.159Z,-3.64
2022-11-18T16:57:14.653Z,-3.63
2022-11-18T16:59:41.963Z,-3.64
2022-11-18T17:02:16.929Z,-3.61
2022-11-18T17:15:24.461Z,-3.65
2022-11-18T17:17:54.679Z,-3.45
2022-11-18T17:20:22.578Z,-3.41
2022-11-18T17:25:30.863Z,-3.31
2022-11-18T17:27:58.095Z,-3.27
2022-11-18T17:30:25.730Z,-3.24
2022-11-18T17:57:08.396Z,-2.79
2022-11-18T17:59:35.443Z,-2.78
2022-11-18T18:02:07.497Z,-2.73
2022-11-18T18:04:35.066Z,-2.66
2022-11-18T18:07:02.036Z,-2.60
2022-11-18T18:09:31.343Z,-2.61
2022-11-18T18:12:00.354Z,-2.46
2022-11-18T18:14:27.187Z,-2.48
2022-11-18T18:16:54.399Z,-2.53
2022-11-18T18:19:23.317Z,-2.52
2022-11-18T18:21:51.965Z,-2.50
2022-11-18T18:32:36.205Z,-2.52
2022-11-18T18:51:06.591Z,-2.42
2022-11-18T18:53:34.293Z,-2.43
2022-11-18T18:56:02.072Z,-2.40
2022-11-18T19:04:01.605Z,-2.37
2022-11-18T19:12:25.960Z,-2.33
2022-11-18T19:14:54.176Z,-2.30
2022-11-18T19:17:22.422Z,-2.29
2022-11-18T19:22:32.227Z,-2.25
2022-11-18T19:24:59.928Z,-2.27
2022-11-18T19:27:28.910Z,-2.28
2022-11-18T19:29:55.827Z,-2.28
2022-11-18T19:32:24.963Z,-2.24
2022-11-18T19:34:51.658Z,-2.28
2022-11-18T19:37:18.317Z,-2.22
2022-11-18T19:39:45.280Z,-2.25
2022-11-18T19:42:12.091Z,-2.25
2022-11-18T19:47:13.135Z,-2.25
2022-11-18T19:49:40.256Z,-2.28
2022-11-18T19:52:06.920Z,-2.27
2022-11-18T19:54:33.707Z,-2.29
2022-11-18T19:57:01.392Z,-2.26
2022-11-18T19:59:29.087Z,-2.28
2022-11-18T20:01:58.919Z,-2.28
2022-11-18T20:07:08.487Z,-2.32
2022-11-18T20:09:35.158Z,-2.28
2022-11-18T20:12:01.757Z,-2.29
2022-11-18T20:14:28.418Z,-2.28
2022-11-18T20:16:55.216Z,-2.32
2022-11-18T20:19:23.440Z,-2.31
2022-11-18T20:21:51.437Z,-2.25
2022-11-18T20:24:19.155Z,-2.29
2022-11-18T20:26:45.922Z,-2.22
2022-11-18T20:31:59.221Z,-2.24
2022-11-18T20:34:25.927Z,-2.29
2022-11-18T20:36:54.336Z,-2.28
2022-11-18T20:39:21.987Z,-2.30
2022-11-18T20:42:13.451Z,-2.28
2022-11-18T20:44:40.233Z,-2.28
2022-11-18T20:47:07.085Z,-2.28
2022-11-18T20:49:34.362Z,-2.30
2022-11-18T20:52:01.519Z,-2.29
2022-11-18T20:54:29.154Z,-2.28
2022-11-18T20:56:56.107Z,-2.29
2022-11-18T20:59:22.745Z,-2.32
2022-11-18T21:01:49.430Z,-2.33
2022-11-18T21:04:17.220Z,-2.35
2022-11-18T21:06:44.134Z,-2.34
2022-11-18T21:09:10.777Z,-2.33
2022-11-18T21:11:38.049Z,-2.36
2022-11-18T21:14:23.471Z,-2.41
2022-11-18T21:16:51.617Z,-2.36
2022-11-18T21:19:18.776Z,-2.38
2022-11-18T21:21:45.669Z,-2.45
2022-11-18T21:24:14.575Z,-2.43
2022-11-18T21:26:41.819Z,-2.39
2022-11-18T21:29:11.375Z,-2.39
2022-11-18T21:31:38.916Z,-2.39
2022-11-18T21:34:06.546Z,-2.39
2022-11-18T21:36:38.934Z,-2.38
2022-11-18T21:39:10.729Z,-2.36
2022-11-18T21:41:39.575Z,-2.38
2022-11-18T21:44:11.320Z,-2.36
2022-11-18T21:46:39.860Z,-2.35
2022-11-18T21:49:07.346Z,-2.38
2022-11-18T21:51:35.185Z,-2.40
2022-11-18T21:54:02.042Z,-2.43
2022-11-18T21:56:31.404Z,-2.48
2022-11-18T21:59:02.427Z,-2.52
2022-11-18T22:01:31.601Z,-2.54
2022-11-18T22:04:04.357Z,-2.58
2022-11-18T22:06:33.969Z,-2.64
2022-11-18T22:09:02.035Z,-2.66
2022-11-18T22:11:31.264Z,-2.74
2022-11-18T22:13:58.129Z,-2.76
2022-11-18T22:16:27.228Z,-2.79
2022-11-18T22:19:03.642Z,-2.85
2022-11-18T22:21:33.438Z,-2.89
2022-11-18T22:24:01.045Z,-2.93
2022-11-18T22:26:30.352Z,-2.96
2022-11-18T22:29:00.736Z,-3.01
2022-11-18T22:31:28.324Z,-3.07
2022-11-18T22:33:56.535Z,-3.11
2022-11-18T22:36:26.118Z,-3.13
2022-11-18T22:38:53.591Z,-3.23
2022-11-18T22:41:41.801Z,-3.28
2022-11-18T22:44:10.151Z,-3.36
2022-11-18T22:46:38.416Z,-3.42
2022-11-18T22:49:06.240Z,-3.46
2022-11-18T22:51:33.591Z,-3.49
2022-11-18T22:54:30.825Z,-3.58
2022-11-18T22:56:47.298Z,-3.63
2022-11-18T22:59:15.283Z,-3.58
2022-11-18T23:01:42.241Z,-3.61
2022-11-18T23:04:11.152Z,-3.64
2022-11-18T23:06:37.980Z,-3.68
2022-11-18T23:09:04.633Z,-3.73
2022-11-18T23:11:51.138Z,-3.77
2022-11-18T23:14:27.942Z,-3.80
2022-11-18T23:16:55.256Z,-3.84
2022-11-18T23:19:22.286Z,-3.89
2022-11-18T23:21:49.170Z,-3.92
2022-11-18T23:24:19.481Z,-4.00
2022-11-18T23:29:27.961Z,-4.13
2022-11-18T23:31:55.704Z,-4.11
2022-11-18T23:34:22.930Z,-4.12
2022-11-18T23:36:50.089Z,-4.08
2022-11-18T23:39:18.714Z,-4.01
2022-11-18T23:41:45.583Z,-4.01
2022-11-18T23:44:15.707Z,-3.99
2022-11-18T23:46:42.322Z,-4.09
2022-11-18T23:49:09.913Z,-4.15
2022-11-18T23:51:36.616Z,-4.22
2022-11-18T23:54:03.260Z,-4.29
2022-11-18T23:56:32.780Z,-4.29
2022-11-18T23:59:04.485Z,-4.30
